createdAt,value
2022-08-16T00:05:00.241Z,13.18
2022-08-16T00:15:13.121Z,13.13
2022-08-16T00:26:33.626Z,12.40
2022-08-16T00:35:56.577Z,13.20
2022-08-16T00:46:34.628Z,11.63
2022-08-16T00:56:58.419Z,11.23
2022-08-16T01:07:07.620Z,11.95
2022-08-16T01:17:14.572Z,11.80
2022-08-16T01:27:28.514Z,11.77
2022-08-16T01:37:42.933Z,11.50
2022-08-16T01:47:52.282Z,11.30
2022-08-16T01:57:58.913Z,10.93
2022-08-16T02:08:05.043Z,10.35
2022-08-16T02:18:12.457Z,11.35
2022-08-16T02:28:23.987Z,10.82
2022-08-16T02:38:31.703Z,10.27
2022-08-16T02:48:47.426Z,11.02
2022-08-16T02:58:58.711Z,11.18
2022-08-16T03:09:04.737Z,12.10
2022-08-16T03:19:19.220Z,11.68
2022-08-16T03:29:31.268Z,12.10
2022-08-16T03:39:42.607Z,12.10
2022-08-16T03:49:51.851Z,12.30
2022-08-16T03:59:59.462Z,11.73
2022-08-16T04:10:36.036Z,11.38
2022-08-16T04:20:37.283Z,11.68
2022-08-16T04:30:43.081Z,12.73
2022-08-16T04:40:50.004Z,12.13
2022-08-16T04:50:54.229Z,11.57
2022-08-16T05:01:02.726Z,12.30
2022-08-16T05:11:15.122Z,12.13
2022-08-16T05:21:17.459Z,11.80
2022-08-16T05:31:30.434Z,11.80
2022-08-16T05:41:45.569Z,11.98
2022-08-16T05:51:49.764Z,10.52
2022-08-16T06:02:01.121Z,10.68
2022-08-16T06:12:27.320Z,10.18
2022-08-16T06:22:40.308Z,10.27
2022-08-16T06:32:48.587Z,10.90
2022-08-16T06:42:57.504Z,10.75
2022-08-16T06:53:23.049Z,10.05
2022-08-16T07:03:54.488Z,11.60
2022-08-16T07:14:24.394Z,9.68
2022-08-16T07:24:30.020Z,9.90
2022-08-16T07:34:37.790Z,9.52
2022-08-16T07:44:52.743Z,8.70
2022-08-16T07:54:56.349Z,8.43
2022-08-16T08:04:59.063Z,9.25
2022-08-16T08:15:09.634Z,9.30
2022-08-16T08:25:14.232Z,8.43
2022-08-16T08:35:24.331Z,8.50
2022-08-16T08:45:47.384Z,9.45
2022-08-16T08:55:59.214Z,10.30
2022-08-16T09:06:08.496Z,10.60
2022-08-16T09:17:03.821Z,10.63
2022-08-16T09:26:46.366Z,9.27
2022-08-16T09:36:54.570Z,8.65
2022-08-16T09:47:00.715Z,7.82
2022-08-16T09:57:07.395Z,9.15
2022-08-16T10:07:19.152Z,8.38
2022-08-16T10:17:27.411Z,8.93
2022-08-16T10:27:46.222Z,9.45
2022-08-16T10:37:58.241Z,8.00
2022-08-16T10:48:27.411Z,6.82
2022-08-16T10:58:35.150Z,7.22
2022-08-16T11:08:45.727Z,7.60
2022-08-16T11:19:05.681Z,8.07
2022-08-16T11:29:14.674Z,8.43
2022-08-16T11:39:26.432Z,8.82
2022-08-16T11:49:31.422Z,9.27
2022-08-16T11:59:34.062Z,7.88
2022-08-16T12:09:43.092Z,8.95
2022-08-16T12:19:45.998Z,9.45
2022-08-16T12:29:51.618Z,9.82
2022-08-16T12:40:02.490Z,9.70
2022-08-16T12:50:10.374Z,10.30
2022-08-16T13:00:26.256Z,11.55
2022-08-16T13:10:37.632Z,10.95
2022-08-16T13:20:43.425Z,7.25
2022-08-16T13:30:52.016Z,6.22
2022-08-16T13:40:57.275Z,6.65
2022-08-16T13:51:04.119Z,5.10
2022-08-16T14:01:09.857Z,5.53
2022-08-16T14:11:18.463Z,5.72
2022-08-16T14:21:23.659Z,6.28
2022-08-16T14:31:30.704Z,5.78
2022-08-16T14:41:33.194Z,6.57
2022-08-16T14:51:37.588Z,6.55
2022-08-16T15:01:58.878Z,7.22
2022-08-16T15:12:26.232Z,7.93
2022-08-16T15:22:33.005Z,8.45
2022-08-16T15:32:39.904Z,8.95
2022-08-16T15:42:44.180Z,9.50
2022-08-16T15:52:59.519Z,9.07
2022-08-16T16:03:08.419Z,9.68
2022-08-16T16:13:12.020Z,8.85
2022-08-16T16:23:24.404Z,8.45
2022-08-16T16:33:30.650Z,9.32
2022-08-16T16:43:35.917Z,10.63
2022-08-16T16:53:41.487Z,9.90
2022-08-16T17:03:43.668Z,9.18
2022-08-16T17:13:58.671Z,6.88
2022-08-16T17:24:01.742Z,7.25
2022-08-16T17:34:30.124Z,7.22
2022-08-16T17:44:37.388Z,6.80
2022-08-16T17:54:39.462Z,7.65
2022-08-16T18:04:48.469Z,7.55
2022-08-16T18:14:59.892Z,7.68
2022-08-16T18:25:11.977Z,7.22
2022-08-16T18:35:19.683Z,9.13
2022-08-16T18:45:23.439Z,9.48
2022-08-16T18:55:33.527Z,9.38
2022-08-16T19:05:41.499Z,9.45
2022-08-16T19:15:45.739Z,8.93
2022-08-16T19:25:53.125Z,10.07
2022-08-16T19:35:56.357Z,9.63
2022-08-16T19:46:02.050Z,10.25
2022-08-16T19:56:06.547Z,10.00
2022-08-16T20:06:12.200Z,10.30
2022-08-16T20:16:36.910Z,10.90
2022-08-16T20:26:46.027Z,10.68
2022-08-16T20:36:48.204Z,9.82
2022-08-16T20:46:50.800Z,10.25
2022-08-16T20:56:55.184Z,10.80
2022-08-16T21:07:02.028Z,11.35
2022-08-16T21:17:09.603Z,12.00
2022-08-16T21:27:17.610Z,11.98
2022-08-16T21:37:20.886Z,12.43
2022-08-16T21:47:23.219Z,12.73
2022-08-16T21:57:36.339Z,12.55
2022-08-16T22:07:41.095Z,13.25
2022-08-16T22:17:46.141Z,13.88
2022-08-16T22:27:50.987Z,12.43
2022-08-16T22:38:46.105Z,12.68
2022-08-16T22:48:19.083Z,13.57
2022-08-16T22:58:23.830Z,13.60
2022-08-16T23:08:43.189Z,14.65
2022-08-16T23:18:49.546Z,16.73
2022-08-16T23:28:51.730Z,15.48
2022-08-16T23:38:54.574Z,15.02
2022-08-16T23:49:57.379Z,15.43
2022-08-16T23:59:23.373Z,16.35
